Time;durP1;ratioP1;P1;durP2;ratioP2;P2;SDS_P1;SDS_P2;PMS_P1;PMS_P2;Temp;Humidity;BMP_temperature;BMP_pressure;BME280_temperature;BME280_humidity;BME280_pressure;Samples;Min_cycle;Max_cycle;Signal;HPM_P1;HPM_P2
2022/12/12 00:01:28;;;;;;;38.13;23.90;;;;;;;-2.69;100.00;95880.81;5053219;28;20206;-60
2022/12/12 00:03:56;;;;;;;38.20;24.90;;;;;;;-2.74;100.00;95877.66;5047546;28;20281;-61
2022/12/12 00:06:24;;;;;;;36.80;22.90;;;;;;;-2.63;100.00;95881.38;5046789;28;20202;-61
2022/12/12 00:08:51;;;;;;;40.67;24.43;;;;;;;-2.68;100.00;95882.50;5046000;28;20203;-61
2022/12/12 00:11:18;;;;;;;43.40;24.30;;;;;;;-2.68;100.00;95890.28;5045336;28;20624;-60
2022/12/12 00:13:45;;;;;;;36.00;24.30;;;;;;;-2.65;100.00;95882.34;5045355;28;20207;-61
2022/12/12 00:16:12;;;;;;;39.07;24.70;;;;;;;-2.63;100.00;95880.53;5045595;28;20573;-61
2022/12/12 00:18:39;;;;;;;39.80;24.53;;;;;;;-2.61;100.00;95878.69;5044803;28;20212;-61
2022/12/12 00:21:11;;;;;;;40.17;24.77;;;;;;;-2.59;100.00;95885.47;5045042;28;20199;-60
2022/12/12 00:23:37;;;;;;;38.90;24.77;;;;;;;-2.49;100.00;95880.63;5045318;28;20222;-61
2022/12/12 00:26:06;;;;;;;40.03;24.73;;;;;;;-2.54;100.00;95874.84;5045925;28;20204;-60
2022/12/12 00:28:32;;;;;;;36.80;23.63;;;;;;;-2.54;100.00;95877.44;5045811;28;20207;-61
2022/12/12 00:30:59;;;;;;;39.23;23.93;;;;;;;-2.57;100.00;95880.19;5044811;28;20221;-62
2022/12/12 00:33:25;;;;;;;36.83;24.17;;;;;;;-2.51;100.00;95880.69;5044741;28;20196;-61
2022/12/12 00:35:54;;;;;;;38.67;22.97;;;;;;;-2.47;100.00;95889.13;5044643;28;20203;-60
2022/12/12 00:38:23;;;;;;;36.30;24.10;;;;;;;-2.51;100.00;95887.59;5045459;28;20224;-60
2022/12/12 00:40:55;;;;;;;38.57;23.17;;;;;;;-2.41;100.00;95893.16;5044644;28;20204;-63
2022/12/12 00:43:21;;;;;;;35.10;23.40;;;;;;;-2.44;100.00;95886.34;5045209;28;20208;-60
2022/12/12 00:45:48;;;;;;;39.20;23.13;;;;;;;-2.48;100.00;95884.03;5044840;28;20650;-61
2022/12/12 00:48:14;;;;;;;36.37;23.00;;;;;;;-2.44;100.00;95888.94;5045347;28;20218;-61
2022/12/12 00:50:41;;;;;;;40.23;24.63;;;;;;;-2.47;100.00;95896.88;5044686;28;20199;-61
2022/12/12 00:53:07;;;;;;;40.17;24.63;;;;;;;-2.44;100.00;95893.31;5044541;28;20203;-61
2022/12/12 00:55:35;;;;;;;39.77;23.73;;;;;;;-2.49;100.00;95890.97;5044682;28;20196;-62
2022/12/12 00:58:01;;;;;;;39.27;25.10;;;;;;;-2.46;100.00;95897.72;5048047;28;20221;-61
2022/12/12 01:00:28;;;;;;;36.17;22.87;;;;;;;-2.57;100.00;95899.13;5044192;28;20553;-62
2022/12/12 01:02:56;;;;;;;40.93;25.47;;;;;;;-2.47;100.00;95903.81;5045085;28;20203;-61
2022/12/12 01:05:23;;;;;;;39.77;24.17;;;;;;;-2.52;100.00;95909.25;5044424;28;20231;-62
2022/12/12 01:07:49;;;;;;;38.83;24.57;;;;;;;-2.46;100.00;95903.75;5044749;28;20222;-60
2022/12/12 01:10:16;;;;;;;39.90;24.50;;;;;;;-2.42;100.00;95910.44;5044209;28;20212;-62
2022/12/12 01:12:44;;;;;;;42.27;24.83;;;;;;;-2.34;100.00;95913.44;5044462;28;20848;-61
2022/12/12 01:15:11;;;;;;;37.00;23.53;;;;;;;-2.34;100.00;95916.03;5043900;28;20207;-61
2022/12/12 01:17:38;;;;;;;39.13;24.37;;;;;;;-2.37;100.00;95908.41;5044325;28;20303;-61
2022/12/12 01:20:05;;;;;;;37.57;25.00;;;;;;;-2.42;100.00;95918.19;5043432;28;20203;-59
2022/12/12 01:22:32;;;;;;;35.83;23.43;;;;;;;-2.39;100.00;95919.78;5044531;28;20214;-61
2022/12/12 01:24:59;;;;;;;36.87;23.37;;;;;;;-2.35;100.00;95922.13;5044128;28;20260;-61
2022/12/12 01:27:26;;;;;;;38.23;24.43;;;;;;;-2.35;100.00;95924.72;5044547;28;20206;-61
2022/12/12 01:29:55;;;;;;;36.97;23.93;;;;;;;-2.33;100.00;95927.19;5043996;28;20208;-60
2022/12/12 01:32:21;;;;;;;36.47;23.43;;;;;;;-2.34;100.00;95926.38;5044403;28;20274;-60
2022/12/12 01:34:48;;;;;;;35.97;23.47;;;;;;;-2.33;100.00;95925.44;5043395;28;20540;-60
2022/12/12 01:37:14;;;;;;;37.47;22.67;;;;;;;-2.37;100.00;95929.13;5044214;28;20200;-61
2022/12/12 01:39:41;;;;;;;34.83;23.07;;;;;;;-2.35;100.00;95931.63;5043718;28;20208;-60
2022/12/12 01:42:12;;;;;;;34.73;22.77;;;;;;;-2.38;100.00;95926.63;5044273;28;20310;-60
2022/12/12 01:44:44;;;;;;;33.80;23.53;;;;;;;-2.39;100.00;95928.38;5043299;28;20226;-60
2022/12/12 01:47:14;;;;;;;35.00;23.97;;;;;;;-2.35;100.00;95932.47;5043873;28;20207;-60
2022/12/12 01:49:41;;;;;;;36.10;24.20;;;;;;;-2.41;100.00;95927.63;5042994;28;20209;-61
2022/12/12 01:52:10;;;;;;;36.00;24.03;;;;;;;-2.54;100.00;95931.78;5044861;28;20199;-60
2022/12/12 01:54:40;;;;;;;37.80;24.43;;;;;;;-2.55;100.00;95938.69;5043742;28;20195;-61
2022/12/12 01:57:10;;;;;;;38.70;24.17;;;;;;;-2.60;100.00;95929.53;5043589;28;20207;-60
2022/12/12 01:59:38;;;;;;;39.80;24.87;;;;;;;-2.52;100.00;95930.81;5043366;28;20266;-61
2022/12/12 02:02:05;;;;;;;45.47;26.10;;;;;;;-2.52;100.00;95935.97;5043642;28;20208;-61
2022/12/12 02:04:33;;;;;;;41.73;25.40;;;;;;;-2.64;100.00;95935.78;5042662;28;20227;-61
2022/12/12 02:07:00;;;;;;;37.77;24.10;;;;;;;-2.51;100.00;95931.59;5043246;28;20215;-61
2022/12/12 02:09:27;;;;;;;36.73;23.33;;;;;;;-2.45;100.00;95936.47;5043237;28;20580;-61
2022/12/12 02:11:55;;;;;;;33.67;21.77;;;;;;;-2.51;100.00;95936.78;5043505;28;20207;-61
2022/12/12 02:14:24;;;;;;;37.30;22.83;;;;;;;-2.48;100.00;95938.41;5043198;28;20211;-61
2022/12/12 02:17:13;;;;;;;37.60;22.77;;;;;;;-2.62;100.00;95941.69;5043109;28;20211;-61
2022/12/12 02:20:20;;;;;;;36.17;22.53;;;;;;;-2.59;100.00;95936.38;5043339;28;20208;-62
2022/12/12 02:23:00;;;;;;;36.73;22.93;;;;;;;-2.57;100.00;95937.13;5044078;28;20203;-61
2022/12/12 02:25:45;;;;;;;35.03;22.70;;;;;;;-2.64;100.00;95936.63;5043089;28;20218;-62
2022/12/12 02:28:30;;;;;;;39.53;23.83;;;;;;;-2.56;100.00;95941.38;5043923;28;20203;-61
2022/12/12 02:31:10;;;;;;;33.73;22.10;;;;;;;-2.55;100.00;95935.31;5043804;28;20199;-60
2022/12/12 02:33:39;;;;;;;33.03;22.60;;;;;;;-2.53;100.00;95933.47;5044512;28;20209;-62
2022/12/12 02:36:12;;;;;;;36.77;23.03;;;;;;;-2.61;100.00;95941.63;5044284;28;20196;-60
2022/12/12 02:38:52;;;;;;;37.40;23.43;;;;;;;-2.71;100.00;95939.59;5043923;28;20212;-60
2022/12/12 02:41:27;;;;;;;37.03;22.87;;;;;;;-2.67;100.00;95936.78;5043544;28;20205;-61
2022/12/12 02:44:01;;;;;;;37.73;23.60;;;;;;;-2.65;100.00;95932.34;5042965;28;20203;-61
2022/12/12 02:46:32;;;;;;;36.30;23.50;;;;;;;-2.62;100.00;95933.94;5042630;28;20202;-60
2022/12/12 02:49:01;;;;;;;34.83;22.17;;;;;;;-2.73;100.00;95931.91;5042679;28;20209;-59
2022/12/12 02:51:29;;;;;;;37.87;23.80;;;;;;;-2.69;100.00;95932.56;5044757;28;20203;-62
2022/12/12 02:53:58;;;;;;;35.17;22.43;;;;;;;-2.67;100.00;95939.38;5043254;28;20203;-60
2022/12/12 02:56:47;;;;;;;34.43;22.10;;;;;;;-2.68;100.00;95939.44;5043413;28;20202;-60
2022/12/12 02:59:19;;;;;;;35.00;22.90;;;;;;;-2.66;100.00;95937.63;5042359;28;20241;-60
2022/12/12 03:02:00;;;;;;;37.93;23.03;;;;;;;-2.70;100.00;95947.28;5043263;28;20555;-60
2022/12/12 03:07:46;;;;;;;37.27;23.43;;;;;;;-2.66;100.00;95941.00;5002134;28;20290;-59
2022/12/12 03:10:17;;;;;;;34.50;21.60;;;;;;;-2.61;100.00;95943.38;5038179;28;20214;-60
2022/12/12 03:12:48;;;;;;;32.93;22.03;;;;;;;-2.63;100.00;95945.22;5042502;28;20219;-61
2022/12/12 03:15:20;;;;;;;32.73;21.47;;;;;;;-2.64;100.00;95940.94;5042157;28;20206;-61
2022/12/12 03:17:56;;;;;;;34.90;22.37;;;;;;;-2.66;100.00;95937.63;5042333;28;20199;-59
2022/12/12 03:20:26;;;;;;;35.10;22.47;;;;;;;-2.65;100.00;95942.69;5041412;28;21825;-61
2022/12/12 03:22:56;;;;;;;37.27;22.00;;;;;;;-2.74;100.00;95937.19;5042764;28;20211;-60
2022/12/12 03:25:25;;;;;;;33.20;22.27;;;;;;;-2.81;100.00;95944.44;5042472;28;20237;-60
2022/12/12 03:27:57;;;;;;;35.63;21.63;;;;;;;-2.77;100.00;95942.53;5042539;28;20257;-59
2022/12/12 03:30:23;;;;;;;38.67;23.87;;;;;;;-2.73;100.00;95938.84;5042575;28;20196;-60
2022/12/12 03:32:54;;;;;;;35.13;22.37;;;;;;;-2.80;100.00;95940.09;5042176;28;20216;-60
2022/12/12 03:35:24;;;;;;;34.57;21.40;;;;;;;-2.81;100.00;95941.00;5041903;28;20200;-61
2022/12/12 03:37:53;;;;;;;34.10;21.50;;;;;;;-2.69;100.00;95948.09;5041986;28;20265;-59
2022/12/12 03:40:24;;;;;;;34.80;22.03;;;;;;;-2.69;100.00;95938.59;5041768;28;20652;-60
2022/12/12 03:42:58;;;;;;;31.03;21.23;;;;;;;-2.68;100.00;95944.63;5041776;28;20221;-61
2022/12/12 03:45:28;;;;;;;34.83;21.80;;;;;;;-2.67;100.00;95951.47;5041648;28;20253;-61
2022/12/12 03:48:01;;;;;;;36.20;21.90;;;;;;;-2.79;100.00;95940.00;5042159;28;20199;-60
2022/12/12 03:50:29;;;;;;;34.80;22.43;;;;;;;-2.72;100.00;95943.94;5041447;28;20200;-61
2022/12/12 03:52:59;;;;;;;32.17;21.17;;;;;;;-2.76;100.00;95941.56;5041749;28;20199;-60
2022/12/12 03:55:29;;;;;;;33.57;21.43;;;;;;;-2.87;100.00;95949.09;5041245;28;20864;-60
2022/12/12 03:57:59;;;;;;;33.80;22.10;;;;;;;-2.73;100.00;95949.22;5042268;28;20217;-60
2022/12/12 04:00:27;;;;;;;34.10;21.87;;;;;;;-2.78;100.00;95944.25;5042161;28;20232;-61
2022/12/12 04:02:58;;;;;;;34.23;21.73;;;;;;;-2.76;100.00;95951.94;5041757;28;20207;-61
2022/12/12 04:05:27;;;;;;;33.73;21.17;;;;;;;-2.73;100.00;95949.22;5041977;28;20231;-59
2022/12/12 04:07:59;;;;;;;32.30;20.83;;;;;;;-2.67;100.00;95947.13;5042399;28;20222;-60
2022/12/12 04:13:19;;;;;;;34.97;22.07;;;;;;;-2.62;100.00;95952.88;5042031;28;20574;-61
2022/12/12 04:15:57;;;;;;;31.70;21.33;;;;;;;-2.62;100.00;95954.63;5042652;28;20196;-61
2022/12/12 04:18:35;;;;;;;34.17;21.27;;;;;;;-2.62;100.00;95957.22;5043078;28;20193;-60
2022/12/12 04:24:07;;;;;;;37.80;23.17;;;;;;;-2.63;100.00;95963.34;5043534;28;20213;-61
2022/12/12 04:26:39;;;;;;;36.83;23.03;;;;;;;-2.57;100.00;95968.19;5043656;28;20196;-59
2022/12/12 04:29:31;;;;;;;34.07;22.60;;;;;;;-2.63;100.00;95973.69;5046650;28;20210;-61
2022/12/12 04:32:00;;;;;;;34.60;22.10;;;;;;;-2.64;100.00;95974.59;5041535;28;20214;-60
2022/12/12 04:34:35;;;;;;;36.50;22.87;;;;;;;-2.62;100.00;95971.00;5043424;28;20210;-62
2022/12/12 04:37:02;;;;;;;36.27;22.77;;;;;;;-2.68;100.00;95976.50;5045502;28;20294;-61
2022/12/12 04:39:30;;;;;;;36.90;23.07;;;;;;;-2.63;100.00;95973.69;5044577;28;20631;-60
2022/12/12 04:41:58;;;;;;;36.17;22.83;;;;;;;-2.70;100.00;95972.34;5044817;28;20236;-61
2022/12/12 04:44:27;;;;;;;35.83;21.80;;;;;;;-2.64;100.00;95974.59;5045238;28;20230;-61
2022/12/12 04:46:56;;;;;;;34.00;22.27;;;;;;;-2.61;100.00;95974.44;5044245;28;20210;-60
2022/12/12 04:49:26;;;;;;;35.67;21.77;;;;;;;-2.62;100.00;95972.75;5046743;28;20264;-60
2022/12/12 04:52:00;;;;;;;38.00;23.97;;;;;;;-2.67;100.00;95967.00;5047660;28;20297;-60
2022/12/12 04:54:32;;;;;;;37.50;23.90;;;;;;;-2.59;100.00;95972.59;5048194;28;20208;-61
2022/12/12 04:57:01;;;;;;;37.67;23.60;;;;;;;-2.64;100.00;95969.41;5051048;28;20209;-61
2022/12/12 04:59:28;;;;;;;36.30;21.93;;;;;;;-2.56;100.00;95975.03;5051841;28;20234;-61
2022/12/12 05:01:59;;;;;;;33.03;22.13;;;;;;;-2.47;100.00;95976.28;5059330;28;20213;-60
2022/12/12 05:04:30;;;;;;;35.40;22.57;;;;;;;-2.43;100.00;95981.22;5063224;28;20211;-61
2022/12/12 05:07:01;;;;;;;37.10;22.57;;;;;;;-2.57;100.00;95983.72;5058628;28;20213;-61
2022/12/12 05:09:28;;;;;;;37.47;23.00;;;;;;;-2.55;100.00;95977.53;5044982;28;20206;-60
2022/12/12 05:11:54;;;;;;;38.67;23.30;;;;;;;-2.51;100.00;95978.19;5052971;28;20546;-60
2022/12/12 05:14:21;;;;;;;37.47;22.37;;;;;;;-2.55;100.00;95976.72;5060298;28;20207;-61
2022/12/12 05:16:50;;;;;;;31.97;22.43;;;;;;;-2.48;100.00;95978.06;5070966;28;20201;-61
2022/12/12 05:19:16;;;;;;;35.73;22.90;;;;;;;-2.56;100.00;95985.38;5057912;28;20200;-60
2022/12/12 05:21:43;;;;;;;35.50;23.17;;;;;;;-2.54;100.00;95979.22;5045368;28;20205;-61
2022/12/12 05:24:11;;;;;;;36.13;22.40;;;;;;;-2.51;100.00;95985.97;5044804;28;20248;-61
2022/12/12 05:26:38;;;;;;;35.30;22.97;;;;;;;-2.50;100.00;95990.22;5044094;28;20559;-61
2022/12/12 05:29:04;;;;;;;34.10;22.23;;;;;;;-2.46;100.00;95991.75;5046721;28;20211;-64
2022/12/12 05:31:31;;;;;;;36.50;22.70;;;;;;;-2.48;100.00;95983.25;5047497;28;20226;-61
2022/12/12 05:33:57;;;;;;;32.07;21.87;;;;;;;-2.45;100.00;95987.41;5044965;28;20211;-61
2022/12/12 05:36:24;;;;;;;36.33;22.70;;;;;;;-2.43;100.00;95986.41;5044665;28;20203;-61
2022/12/12 05:38:50;;;;;;;32.73;21.97;;;;;;;-2.44;100.00;95995.06;5045106;28;20219;-62
2022/12/12 05:41:18;;;;;;;36.53;22.80;;;;;;;-2.43;100.00;95985.56;5044149;28;21370;-62
2022/12/12 05:43:45;;;;;;;36.43;22.00;;;;;;;-2.39;100.00;95987.09;5045381;28;20211;-61
2022/12/12 05:46:11;;;;;;;34.73;22.77;;;;;;;-2.49;100.00;95997.09;5045186;28;20227;-61
2022/12/12 05:48:38;;;;;;;35.23;23.13;;;;;;;-2.44;100.00;95997.66;5045069;28;20551;-62
2022/12/12 05:51:05;;;;;;;37.90;22.57;;;;;;;-2.35;100.00;95998.94;5043378;28;20207;-62
2022/12/12 05:53:31;;;;;;;35.07;22.07;;;;;;;-2.31;100.00;95996.13;5044182;28;20218;-61
2022/12/12 05:55:58;;;;;;;33.20;22.00;;;;;;;-2.35;100.00;96002.38;5044108;28;20204;-61
2022/12/12 05:58:26;;;;;;;34.23;22.80;;;;;;;-2.46;100.00;96003.84;5044027;28;20199;-60
2022/12/12 06:00:53;;;;;;;36.83;23.00;;;;;;;-2.50;100.00;96010.94;5044063;28;20238;-59
2022/12/12 06:03:19;;;;;;;33.47;22.33;;;;;;;-2.52;100.00;96011.03;5044259;28;20305;-61
2022/12/12 06:05:46;;;;;;;34.50;20.60;;;;;;;-2.46;100.00;96007.28;5044703;28;20232;-59
2022/12/12 06:08:13;;;;;;;34.17;22.00;;;;;;;-2.36;100.00;96008.47;5044410;28;20199;-62
2022/12/12 06:10:39;;;;;;;35.53;22.07;;;;;;;-2.24;100.00;96007.00;5044308;28;20207;-60
2022/12/12 06:13:06;;;;;;;33.87;22.13;;;;;;;-2.26;100.00;96014.81;5043807;28;20647;-59
2022/12/12 06:15:33;;;;;;;32.93;21.87;;;;;;;-2.39;100.00;96007.78;5043279;28;20216;-61
2022/12/12 06:18:02;;;;;;;34.77;21.87;;;;;;;-2.37;100.00;96009.38;5043689;28;20207;-67
2022/12/12 06:20:30;;;;;;;32.67;21.47;;;;;;;-2.44;100.00;96007.22;5043166;28;20211;-60
2022/12/12 06:22:56;;;;;;;34.23;22.53;;;;;;;-2.41;100.00;96007.88;5043531;28;20211;-60
2022/12/12 06:25:23;;;;;;;33.27;21.20;;;;;;;-2.39;100.00;96008.63;5041940;28;20213;-60
2022/12/12 06:27:49;;;;;;;31.57;20.67;;;;;;;-2.41;100.00;96012.22;5042686;28;20652;-60
2022/12/12 06:30:16;;;;;;;29.30;20.67;;;;;;;-2.44;100.00;96015.78;5042613;28;20234;-61
2022/12/12 06:32:44;;;;;;;31.83;20.07;;;;;;;-2.47;100.00;96015.94;5042991;28;20515;-61
2022/12/12 06:35:11;;;;;;;32.20;20.20;;;;;;;-2.46;100.00;96022.81;5042875;28;20218;-61
2022/12/12 06:37:38;;;;;;;29.73;19.67;;;;;;;-2.55;100.00;96018.94;5043564;28;20671;-60
2022/12/12 06:40:06;;;;;;;28.93;20.00;;;;;;;-2.45;100.00;96027.09;5042963;28;20215;-61
2022/12/12 06:42:32;;;;;;;33.47;19.63;;;;;;;-2.40;100.00;96029.41;5043526;28;20224;-60
2022/12/12 06:44:59;;;;;;;30.30;19.90;;;;;;;-2.43;100.00;96022.66;5044875;28;20230;-60
2022/12/12 06:47:25;;;;;;;30.33;20.47;;;;;;;-2.45;100.00;96021.06;5043435;28;20207;-60
2022/12/12 06:49:53;;;;;;;32.00;20.40;;;;;;;-2.58;100.00;96026.88;5044011;28;20234;-61
2022/12/12 06:52:19;;;;;;;30.43;21.10;;;;;;;-2.53;100.00;96026.63;5042794;28;20211;-60
2022/12/12 06:54:46;;;;;;;29.47;20.03;;;;;;;-2.55;100.00;96025.88;5043110;28;20202;-60
2022/12/12 06:57:12;;;;;;;29.90;20.00;;;;;;;-2.52;100.00;96034.34;5045477;28;20672;-61
2022/12/12 06:59:39;;;;;;;29.87;20.80;;;;;;;-2.57;100.00;96035.47;5047045;28;20235;-60
2022/12/12 07:02:06;;;;;;;34.60;21.83;;;;;;;-2.58;100.00;96044.97;5045177;28;20195;-61
2022/12/12 07:04:32;;;;;;;34.77;22.57;;;;;;;-2.47;100.00;96036.66;5042962;28;20277;-61
2022/12/12 07:07:02;;;;;;;31.67;21.00;;;;;;;-2.47;100.00;96044.44;5042648;28;20681;-59
2022/12/12 07:09:29;;;;;;;31.93;20.57;;;;;;;-2.50;100.00;96047.19;5042133;28;20191;-60
2022/12/12 07:11:55;;;;;;;29.50;20.53;;;;;;;-2.48;100.00;96047.13;5042619;28;20213;-61
2022/12/12 07:14:22;;;;;;;30.37;20.07;;;;;;;-2.45;100.00;96050.38;5042108;28;20215;-61
2022/12/12 07:16:48;;;;;;;35.03;21.73;;;;;;;-2.43;100.00;96050.28;5042036;28;20200;-61
2022/12/12 07:19:15;;;;;;;30.67;21.50;;;;;;;-2.44;100.00;96049.44;5042151;28;20204;-60
2022/12/12 07:21:41;;;;;;;33.37;21.63;;;;;;;-2.41;100.00;96054.50;5042161;28;20203;-60
2022/12/12 07:24:09;;;;;;;33.07;21.97;;;;;;;-2.36;100.00;96054.22;5041892;28;20203;-60
2022/12/12 07:26:36;;;;;;;31.33;20.70;;;;;;;-2.34;100.00;96052.41;5042034;28;20244;-60
2022/12/12 07:29:04;;;;;;;32.70;22.03;;;;;;;-2.33;100.00;96057.50;5042029;28;20225;-61
2022/12/12 07:31:30;;;;;;;30.57;21.90;;;;;;;-2.35;100.00;96051.56;5043361;28;20643;-60
2022/12/12 07:33:57;;;;;;;34.10;21.70;;;;;;;-2.37;100.00;96050.78;5043476;28;20219;-60
2022/12/12 07:36:23;;;;;;;32.67;21.60;;;;;;;-2.39;100.00;96055.22;5043879;28;20200;-59
2022/12/12 07:38:50;;;;;;;30.67;21.47;;;;;;;-2.35;100.00;96058.50;5043745;28;20207;-63
2022/12/12 07:41:19;;;;;;;31.60;20.80;;;;;;;-2.32;100.00;96066.94;5043058;28;20207;-60
2022/12/12 07:43:46;;;;;;;30.73;20.70;;;;;;;-2.29;100.00;96066.78;5043848;28;20274;-60
2022/12/12 07:46:17;;;;;;;31.13;21.40;;;;;;;-2.28;100.00;96067.63;5042504;28;20220;-61
2022/12/12 07:48:43;;;;;;;32.73;22.60;;;;;;;-2.32;100.00;96077.31;5042569;28;20247;-60
2022/12/12 07:51:10;;;;;;;33.50;20.73;;;;;;;-2.28;100.00;96073.63;5043123;28;20210;-60
2022/12/12 07:53:36;;;;;;;30.17;20.63;;;;;;;-2.23;100.00;96079.41;5042527;28;20678;-61
2022/12/12 07:56:05;;;;;;;30.70;21.30;;;;;;;-2.18;100.00;96079.16;5042377;28;20192;-60
2022/12/12 07:58:33;;;;;;;30.20;21.10;;;;;;;-2.22;100.00;96078.50;5043131;28;20220;-60
2022/12/12 08:00:59;;;;;;;32.87;21.33;;;;;;;-2.16;100.00;96077.34;5042790;28;20232;-60
2022/12/12 08:03:26;;;;;;;32.83;21.90;;;;;;;-2.17;100.00;96075.66;5044058;28;20592;-60
2022/12/12 08:05:52;;;;;;;30.20;20.63;;;;;;;-2.19;100.00;96080.91;5047504;28;20214;-60
2022/12/12 08:08:19;;;;;;;30.27;21.27;;;;;;;-2.20;100.00;96081.84;5046825;28;20206;-60
2022/12/12 08:10:46;;;;;;;33.00;21.03;;;;;;;-2.06;100.00;96089.75;5046834;28;20211;-61
2022/12/12 08:13:12;;;;;;;28.70;20.90;;;;;;;-2.02;100.00;96090.41;5045651;28;20861;-61
2022/12/12 08:15:42;;;;;;;30.33;20.90;;;;;;;-2.01;100.00;96087.72;5046624;28;20660;-61
2022/12/12 08:18:10;;;;;;;27.90;19.97;;;;;;;-1.94;100.00;96088.22;5046524;28;20233;-60
2022/12/12 08:20:39;;;;;;;28.57;20.03;;;;;;;-1.96;99.84;96090.09;5047106;28;20231;-60
2022/12/12 08:23:05;;;;;;;27.60;19.23;;;;;;;-1.99;97.92;96085.06;5046406;28;20216;-61
2022/12/12 08:25:32;;;;;;;26.27;18.80;;;;;;;-1.98;99.27;96091.91;5046603;28;20263;-60
2022/12/12 08:27:59;;;;;;;26.87;18.90;;;;;;;-1.96;100.00;96089.25;5046661;28;20216;-60
2022/12/12 08:30:26;;;;;;;25.40;17.77;;;;;;;-1.96;97.45;96095.25;5045620;28;21476;-60
2022/12/12 08:32:53;;;;;;;23.70;17.17;;;;;;;-1.96;95.51;96094.41;5045757;28;20211;-60
2022/12/12 08:35:20;;;;;;;22.23;17.27;;;;;;;-1.90;96.15;96100.09;5045320;28;20222;-61
2022/12/12 08:37:46;;;;;;;23.13;16.97;;;;;;;-1.95;95.68;96101.28;5045213;28;20204;-60
2022/12/12 08:40:13;;;;;;;23.70;17.43;;;;;;;-1.94;96.73;96098.59;5045433;28;20198;-60
2022/12/12 08:42:39;;;;;;;21.97;16.53;;;;;;;-1.83;97.02;96098.88;5044923;28;20640;-61
2022/12/12 08:45:07;;;;;;;21.53;16.40;;;;;;;-1.78;98.18;96109.00;5045632;28;20215;-60
2022/12/12 08:47:33;;;;;;;24.97;16.97;;;;;;;-1.77;97.43;96106.31;5044723;28;21440;-60
2022/12/12 08:50:01;;;;;;;20.90;16.07;;;;;;;-1.78;96.30;96103.81;5044601;28;20207;-61
2022/12/12 08:52:28;;;;;;;22.37;16.87;;;;;;;-1.79;95.11;96102.13;5044846;28;20742;-61
2022/12/12 08:54:54;;;;;;;23.03;17.10;;;;;;;-1.75;96.21;96108.84;5044415;28;20212;-62
2022/12/12 08:57:20;;;;;;;21.23;15.27;;;;;;;-1.74;95.29;96113.09;5045244;28;20522;-61
2022/12/12 08:59:47;;;;;;;24.33;17.17;;;;;;;-1.74;96.22;96110.50;5044706;28;20227;-61
2022/12/12 09:02:14;;;;;;;22.83;15.33;;;;;;;-1.71;95.51;96116.38;5044837;28;20211;-60
2022/12/12 09:04:40;;;;;;;22.43;16.67;;;;;;;-1.64;98.16;96114.28;5044492;28;20212;-61
2022/12/12 09:07:08;;;;;;;22.27;15.90;;;;;;;-1.60;97.04;96119.22;5044647;28;20210;-61
2022/12/12 09:09:35;;;;;;;21.63;16.70;;;;;;;-1.68;95.73;96120.53;5045184;28;20235;-61
2022/12/12 09:12:01;;;;;;;21.10;16.03;;;;;;;-1.62;94.89;96126.22;5044479;28;20624;-60
2022/12/12 09:14:28;;;;;;;24.23;17.50;;;;;;;-1.66;95.87;96122.13;5043633;28;20203;-60
2022/12/12 09:16:54;;;;;;;21.50;16.63;;;;;;;-1.61;96.57;96119.28;5044082;28;20216;-61
2022/12/12 09:19:21;;;;;;;23.57;17.20;;;;;;;-1.58;97.12;96121.72;5043938;28;20223;-61
2022/12/12 09:21:47;;;;;;;24.87;17.10;;;;;;;-1.54;97.22;96121.47;5043884;28;20659;-60
2022/12/12 09:24:15;;;;;;;23.77;17.00;;;;;;;-1.56;96.08;96127.69;5044977;28;20214;-59
2022/12/12 09:26:41;;;;;;;23.90;17.20;;;;;;;-1.54;96.57;96124.06;5045188;28;20309;-61
2022/12/12 09:29:08;;;;;;;25.10;17.47;;;;;;;-1.57;95.94;96123.41;5043945;28;20564;-60
2022/12/12 09:31:34;;;;;;;22.83;17.53;;;;;;;-1.49;99.15;96126.44;5043978;28;20210;-60
2022/12/12 09:34:01;;;;;;;25.00;17.13;;;;;;;-1.54;95.86;96128.41;5045036;28;20571;-60
2022/12/12 09:36:27;;;;;;;27.80;18.60;;;;;;;-1.44;95.06;96131.34;5044847;28;20204;-61
2022/12/12 09:38:54;;;;;;;27.93;17.20;;;;;;;-1.48;96.59;96132.41;5045002;28;20254;-60
2022/12/12 09:41:25;;;;;;;25.40;18.43;;;;;;;-1.49;95.86;96136.78;5048842;28;20224;-61
2022/12/12 09:43:56;;;;;;;23.10;15.87;;;;;;;-1.40;97.07;96131.09;5051078;28;20502;-60
2022/12/12 09:46:30;;;;;;;24.53;16.50;;;;;;;-1.43;95.39;96126.09;5048834;28;20225;-60
2022/12/12 09:49:02;;;;;;;23.70;17.60;;;;;;;-1.38;96.59;96131.03;5049452;28;20196;-61
2022/12/12 09:51:29;;;;;;;21.50;16.53;;;;;;;-1.39;97.00;96132.78;5047112;28;20211;-61
2022/12/12 09:53:56;;;;;;;23.70;17.07;;;;;;;-1.40;96.02;96128.50;5043618;28;20215;-60
2022/12/12 09:56:29;;;;;;;22.93;17.10;;;;;;;-1.42;96.56;96125.16;5048837;28;20207;-61
2022/12/12 09:58:59;;;;;;;26.13;17.77;;;;;;;-1.38;95.11;96124.06;5049255;28;20203;-60
2022/12/12 10:01:29;;;;;;;22.37;16.77;;;;;;;-1.43;95.79;96118.31;5048204;28;20187;-60
2022/12/12 10:04:04;;;;;;;24.80;18.13;;;;;;;-1.34;96.29;96125.56;5042697;28;20633;-61
2022/12/12 10:06:34;;;;;;;23.20;17.27;;;;;;;-1.33;98.54;96124.66;5044070;28;20213;-61
2022/12/12 10:09:16;;;;;;;20.60;16.10;;;;;;;-1.31;96.64;96124.59;5043291;28;20206;-61
2022/12/12 10:11:50;;;;;;;23.27;17.47;;;;;;;-1.30;97.95;96114.09;5042958;28;20210;-60
2022/12/12 10:14:19;;;;;;;27.97;17.30;;;;;;;-1.39;96.83;96117.22;5043351;28;20207;-62
2022/12/12 10:16:46;;;;;;;24.03;17.43;;;;;;;-1.41;96.10;96118.19;5043509;28;20211;-61
2022/12/12 10:19:19;;;;;;;26.27;17.60;;;;;;;-1.37;96.84;96115.38;5043617;28;20204;-60
2022/12/12 10:21:47;;;;;;;22.43;16.53;;;;;;;-1.53;95.25;96110.19;5043475;28;20192;-60
2022/12/12 10:24:22;;;;;;;22.97;16.47;;;;;;;-1.44;97.82;96108.84;5043104;28;20213;-61
2022/12/12 10:26:50;;;;;;;21.73;16.53;;;;;;;-1.42;97.30;96117.41;5042877;28;20206;-61
2022/12/12 10:29:18;;;;;;;21.80;16.70;;;;;;;-1.40;97.29;96119.88;5043582;28;20220;-60
2022/12/12 10:31:51;;;;;;;24.20;17.77;;;;;;;-1.27;97.38;96132.09;5043206;28;20217;-60
2022/12/12 10:34:29;;;;;;;22.23;17.47;;;;;;;-1.23;95.76;96127.56;5042627;28;20212;-60
2022/12/12 10:37:05;;;;;;;25.30;17.13;;;;;;;-1.26;95.88;96123.41;5043274;28;20195;-59
2022/12/12 10:39:37;;;;;;;22.70;16.47;;;;;;;-1.20;95.79;96122.22;5042767;28;20496;-61
2022/12/12 10:42:11;;;;;;;24.30;16.67;;;;;;;-1.13;98.75;96119.19;5043448;28;20215;-60
2022/12/12 10:44:49;;;;;;;21.20;15.90;;;;;;;-1.15;97.24;96120.22;5043306;28;20215;-61
2022/12/12 10:47:16;;;;;;;21.87;16.47;;;;;;;-1.11;95.71;96119.13;5042432;28;20207;-61
2022/12/12 10:49:42;;;;;;;21.83;16.10;;;;;;;-1.04;96.57;96123.03;5042773;28;20397;-60
2022/12/12 10:52:17;;;;;;;22.33;17.47;;;;;;;-1.06;96.23;96110.16;5042778;28;20502;-61
2022/12/12 10:54:49;;;;;;;20.10;15.50;;;;;;;-1.04;94.97;96116.09;5042548;28;20210;-61
2022/12/12 10:57:22;;;;;;;22.57;16.47;;;;;;;-1.10;94.43;96111.25;5042599;28;20211;-59
2022/12/12 10:59:51;;;;;;;23.03;16.57;;;;;;;-1.08;97.24;96109.41;5042616;28;20243;-59
2022/12/12 11:02:30;;;;;;;23.33;16.17;;;;;;;-1.02;96.88;96106.47;5042526;28;20201;-61
2022/12/12 11:05:01;;;;;;;24.03;17.07;;;;;;;-1.02;96.46;96106.47;5042113;28;20627;-61
2022/12/12 11:07:29;;;;;;;22.13;17.03;;;;;;;-0.89;95.60;96100.59;5042506;28;20315;-61
2022/12/12 11:09:56;;;;;;;20.63;16.03;;;;;;;-0.91;95.49;96094.63;5042135;28;20595;-60
2022/12/12 11:12:32;;;;;;;22.67;16.37;;;;;;;-0.93;94.43;96093.91;5042210;28;20200;-61
2022/12/12 11:15:04;;;;;;;22.07;16.57;;;;;;;-1.02;94.52;96088.28;5041688;28;20185;-60
2022/12/12 11:17:33;;;;;;;21.27;15.93;;;;;;;-1.00;96.54;96088.22;5042630;28;20197;-60
2022/12/12 11:20:02;;;;;;;22.23;16.83;;;;;;;-1.01;96.26;96091.72;5060582;28;20209;-60
2022/12/12 11:22:32;;;;;;;19.00;15.67;;;;;;;-1.01;94.70;96089.13;5064426;28;20196;-61
2022/12/12 11:24:59;;;;;;;20.90;16.10;;;;;;;-1.01;95.40;96092.56;5057102;28;21150;-60
2022/12/12 11:27:29;;;;;;;21.53;16.07;;;;;;;-1.10;92.31;96097.47;5043701;28;20350;-61
2022/12/12 11:29:57;;;;;;;22.43;15.37;;;;;;;-0.99;94.57;96089.88;5044221;28;20197;-60